Time;durP1;ratioP1;P1;durP2;ratioP2;P2;SDS_P1;SDS_P2;PMS_P1;PMS_P2;Temp;Humidity;BMP_temperature;BMP_pressure;BME280_temperature;BME280_humidity;BME280_pressure;Samples;Min_cycle;Max_cycle;Signal;HPM_P1;HPM_P2
2021/04/10 00:00:20;;;;;;;10.75;4.70;;;8.20;78.00;;;;;;5052659;28;20031;-80
2021/04/10 00:02:50;;;;;;;21.60;5.65;;;8.10;79.30;;;;;;5051452;28;20013;-80
2021/04/10 00:05:18;;;;;;;12.23;4.03;;;8.10;80.10;;;;;;5051162;28;20013;-81
2021/04/10 00:07:44;;;;;;;15.88;4.20;;;8.10;78.00;;;;;;5051363;28;20025;-81
2021/04/10 00:10:10;;;;;;;11.25;4.57;;;8.10;78.60;;;;;;5051367;28;20526;-81
2021/04/10 00:12:36;;;;;;;17.75;5.15;;;8.10;79.70;;;;;;5051152;28;20074;-80
2021/04/10 00:15:05;;;;;;;14.32;3.67;;;8.00;80.40;;;;;;5052190;28;20017;-81
2021/04/10 00:17:30;;;;;;;12.75;3.95;;;8.00;78.50;;;;;;5051090;28;20017;-81
2021/04/10 00:19:56;;;;;;;15.27;5.45;;;7.90;79.90;;;;;;5051250;28;20438;-81
2021/04/10 00:22:21;;;;;;;15.10;5.20;;;7.90;80.00;;;;;;5051381;28;20037;-81
2021/04/10 00:24:47;;;;;;;18.30;5.15;;;7.90;81.00;;;;;;5051407;28;20024;-82
2021/04/10 00:27:12;;;;;;;11.48;3.80;;;7.90;80.70;;;;;;5051673;28;20056;-82
2021/04/10 00:29:38;;;;;;;11.02;3.75;;;7.90;79.30;;;;;;5051575;28;20025;-82
2021/04/10 00:32:05;;;;;;;9.20;4.10;;;7.90;79.20;;;;;;5051177;28;20016;-82
2021/04/10 00:34:31;;;;;;;15.65;3.42;;;7.80;79.00;;;;;;5050844;28;20116;-81
2021/04/10 00:36:56;;;;;;;14.70;5.25;;;7.80;79.30;;;;;;5052172;28;20096;-81
2021/04/10 00:39:22;;;;;;;7.47;2.88;;;7.80;79.10;;;;;;5051168;28;20116;-81
2021/04/10 00:41:47;;;;;;;12.23;3.38;;;7.80;79.90;;;;;;5051040;28;20025;-81
2021/04/10 00:44:13;;;;;;;11.05;3.85;;;7.80;80.40;;;;;;5051110;28;20369;-82
2021/04/10 00:46:38;;;;;;;15.73;4.20;;;7.80;80.00;;;;;;5051177;28;20025;-83
2021/04/10 00:49:04;;;;;;;10.07;2.65;;;7.70;80.90;;;;;;5050999;28;20035;-82
2021/04/10 00:51:30;;;;;;;10.23;4.32;;;7.70;79.70;;;;;;5051416;28;20063;-81
2021/04/10 00:53:55;;;;;;;11.45;2.47;;;7.70;80.70;;;;;;5050908;28;20047;-82
2021/04/10 00:56:21;;;;;;;17.08;3.60;;;7.70;79.50;;;;;;5050842;28;20021;-81
2021/04/10 00:58:47;;;;;;;15.63;4.55;;;7.70;79.50;;;;;;5051082;28;20040;-81
2021/04/10 01:01:12;;;;;;;11.70;3.97;;;7.60;79.40;;;;;;5050627;28;20033;-81
2021/04/10 01:03:38;;;;;;;7.63;2.20;;;7.60;80.00;;;;;;5050866;28;20025;-81
2021/04/10 01:06:04;;;;;;;5.85;2.05;;;7.60;79.20;;;;;;5050645;28;20094;-81
2021/04/10 01:08:30;;;;;;;14.30;3.80;;;7.70;78.90;;;;;;5050680;28;20021;-81
2021/04/10 01:11:25;;;;;;;17.85;4.13;;;7.60;80.70;;;;;;5050399;28;20045;-81
2021/04/10 01:13:56;;;;;;;17.80;4.05;;;7.60;79.80;;;;;;5050458;28;20446;-80
2021/04/10 01:16:30;;;;;;;13.90;3.83;;;7.50;80.30;;;;;;5050817;28;20361;-81
2021/04/10 01:19:18;;;;;;;9.48;3.15;;;7.50;81.00;;;;;;5050384;28;20013;-82
2021/04/10 01:21:52;;;;;;;15.25;4.43;;;7.50;81.10;;;;;;5050674;28;20103;-80
2021/04/10 01:24:37;;;;;;;11.50;4.20;;;7.50;81.00;;;;;;5050844;28;20018;-80
2021/04/10 01:27:38;;;;;;;11.90;4.13;;;7.40;82.50;;;;;;5050559;28;20116;-80
2021/04/10 01:30:13;;;;;;;6.07;2.35;;;7.40;83.10;;;;;;5050293;28;20024;-80
2021/04/10 01:33:10;;;;;;;14.65;4.50;;;7.40;80.90;;;;;;5050416;28;20021;-80
2021/04/10 01:35:40;;;;;;;12.20;4.95;;;7.30;81.80;;;;;;5051892;28;20009;-79
2021/04/10 01:38:13;;;;;;;18.77;5.70;;;7.30;82.60;;;;;;5050319;28;20020;-80
2021/04/10 01:40:40;;;;;;;18.20;5.53;;;7.30;83.40;;;;;;5051152;28;20094;-78
2021/04/10 01:43:07;;;;;;;12.88;4.38;;;7.30;83.60;;;;;;5050517;28;20032;-80
2021/04/10 01:45:33;;;;;;;13.50;4.60;;;7.20;83.40;;;;;;5051364;28;20048;-79
2021/04/10 01:48:06;;;;;;;16.88;4.57;;;7.20;83.10;;;;;;5055748;28;20048;-80
2021/04/10 01:50:33;;;;;;;10.52;4.35;;;7.20;83.40;;;;;;5055156;28;20120;-80
2021/04/10 01:53:00;;;;;;;16.98;4.78;;;7.20;83.30;;;;;;5054730;28;20021;-80
2021/04/10 01:55:27;;;;;;;14.82;4.47;;;7.20;83.20;;;;;;5053654;28;20021;-79
2021/04/10 01:57:54;;;;;;;14.93;4.63;;;7.20;83.90;;;;;;5053894;28;20529;-80
2021/04/10 02:00:26;;;;;;;18.75;4.97;;;7.20;83.40;;;;;;5054967;28;20024;-81
2021/04/10 02:02:54;;;;;;;17.05;4.88;;;7.20;83.10;;;;;;5054924;28;20025;-82
2021/04/10 02:05:23;;;;;;;13.60;4.95;;;7.10;83.70;;;;;;5053712;28;20017;-80
2021/04/10 02:07:50;;;;;;;13.90;4.43;;;7.10;84.40;;;;;;5053892;28;20116;-79
2021/04/10 02:10:25;;;;;;;15.50;4.88;;;7.10;84.80;;;;;;5053018;28;20036;-80
2021/04/10 02:12:53;;;;;;;15.93;4.82;;;7.10;85.40;;;;;;5053462;28;20071;-81
2021/04/10 02:15:20;;;;;;;14.27;5.38;;;7.10;85.10;;;;;;5054658;28;20104;-80
2021/04/10 02:17:46;;;;;;;7.38;2.90;;;7.10;85.40;;;;;;5053581;28;20461;-81
2021/04/10 02:20:14;;;;;;;16.73;6.05;;;7.10;84.30;;;;;;5053264;28;20400;-81
2021/04/10 02:22:43;;;;;;;20.58;6.85;;;7.00;84.40;;;;;;5053643;28;20057;-81
2021/04/10 02:25:10;;;;;;;10.20;4.10;;;7.00;84.80;;;;;;5053237;28;20055;-80
2021/04/10 02:27:36;;;;;;;13.98;4.68;;;7.00;84.00;;;;;;5053601;28;20444;-80
2021/04/10 02:30:03;;;;;;;15.68;5.60;;;7.00;84.10;;;;;;5053395;28;20045;-81
2021/04/10 02:32:52;;;;;;;16.70;6.50;;;7.00;85.00;;;;;;5054746;28;20029;-82
2021/04/10 02:35:36;;;;;;;15.70;4.90;;;7.00;85.50;;;;;;5053383;28;20032;-79
2021/04/10 02:38:04;;;;;;;15.68;5.32;;;6.90;84.90;;;;;;5053036;28;20025;-80
2021/04/10 02:40:44;;;;;;;10.27;3.25;;;6.90;85.00;;;;;;5054521;28;20024;-80
2021/04/10 02:43:12;;;;;;;12.82;3.92;;;6.90;84.30;;;;;;5054146;28;20024;-81
2021/04/10 02:45:39;;;;;;;14.57;5.03;;;6.90;83.50;;;;;;5053206;28;20024;-80
2021/04/10 02:48:10;;;;;;;16.15;5.53;;;6.90;83.60;;;;;;5053172;28;20025;-80
2021/04/10 02:50:37;;;;;;;;;;;6.90;84.70;;;;;;5053441;28;20025;-80
2021/04/10 02:53:05;;;;;;;8.80;3.05;;;6.90;84.30;;;;;;5052800;28;20358;-80
2021/04/10 02:55:45;;;;;;;15.35;4.55;;;6.90;84.40;;;;;;5053261;28;20018;-82
2021/04/10 02:58:12;;;;;;;8.25;3.00;;;6.90;83.80;;;;;;5052429;28;20028;-80
2021/04/10 03:00:41;;;;;;;16.45;6.25;;;6.80;83.90;;;;;;5052996;28;20025;-82
2021/04/10 03:03:10;;;;;;;13.77;5.07;;;6.80;83.60;;;;;;5052886;28;20096;-82
2021/04/10 03:05:38;;;;;;;15.38;5.72;;;6.80;84.40;;;;;;5054565;28;20112;-82
2021/04/10 03:08:06;;;;;;;10.15;4.65;;;6.80;84.70;;;;;;5052653;28;20366;-81
2021/04/10 03:10:32;;;;;;;15.57;4.72;;;6.80;85.40;;;;;;5052613;28;20068;-82
2021/04/10 03:12:58;;;;;;;13.50;4.57;;;6.80;85.40;;;;;;5052549;28;20024;-82
2021/04/10 03:15:24;;;;;;;12.55;4.47;;;6.80;85.00;;;;;;5052582;28;20021;-81
2021/04/10 03:17:50;;;;;;;15.15;3.83;;;6.80;84.00;;;;;;5052486;28;20453;-80
2021/04/10 03:20:17;;;;;;;19.92;6.13;;;6.80;84.10;;;;;;5052233;28;20063;-80
2021/04/10 03:22:44;;;;;;;17.20;5.22;;;6.80;84.80;;;;;;5053896;28;20029;-81
2021/04/10 03:25:12;;;;;;;17.35;5.50;;;6.80;84.30;;;;;;5035420;28;20017;-80
2021/04/10 03:27:39;;;;;;;10.48;3.67;;;6.80;85.90;;;;;;5052412;28;20063;-80
2021/04/10 03:30:06;;;;;;;13.70;5.15;;;6.80;84.90;;;;;;5051890;28;20067;-80
2021/04/10 03:32:32;;;;;;;17.23;5.00;;;6.70;85.00;;;;;;5052391;28;20017;-81
2021/04/10 03:34:58;;;;;;;13.50;5.22;;;6.70;84.30;;;;;;5052435;28;20017;-81
2021/04/10 03:37:25;;;;;;;7.90;3.00;;;6.70;85.10;;;;;;5052883;28;20021;-79
2021/04/10 03:39:51;;;;;;;14.38;4.97;;;6.70;85.30;;;;;;5052053;28;20041;-80
2021/04/10 03:42:21;;;;;;;13.15;4.85;;;6.70;85.20;;;;;;5051897;28;20029;-80
2021/04/10 03:44:47;;;;;;;10.45;5.15;;;6.70;85.50;;;;;;5052088;28;20013;-80
2021/04/10 03:47:12;;;;;;;13.00;4.28;;;6.70;85.70;;;;;;5051891;28;20381;-80
2021/04/10 03:49:38;;;;;;;16.95;5.28;;;6.70;85.40;;;;;;5052053;28;20028;-80
2021/04/10 03:52:04;;;;;;;18.55;6.30;;;6.70;85.20;;;;;;5051784;28;20020;-80
2021/04/10 03:54:30;;;;;;;8.60;3.72;;;6.70;84.90;;;;;;5051800;28;20032;-80
2021/04/10 03:56:56;;;;;;;18.33;6.55;;;6.60;85.00;;;;;;5051640;28;20025;-79
2021/04/10 03:59:22;;;;;;;7.93;3.33;;;6.70;85.70;;;;;;5051243;28;20024;-80
2021/04/10 04:01:47;;;;;;;11.20;3.33;;;6.60;84.40;;;;;;5051801;28;20120;-80
2021/04/10 04:04:13;;;;;;;18.90;5.55;;;6.60;84.30;;;;;;5051355;28;20021;-80
2021/04/10 04:06:38;;;;;;;9.00;2.78;;;6.60;85.30;;;;;;5051561;28;20029;-80
2021/04/10 04:09:04;;;;;;;13.73;5.18;;;6.70;85.30;;;;;;5050925;28;20019;-80
2021/04/10 04:11:29;;;;;;;12.13;5.00;;;6.70;85.90;;;;;;5050964;28;20477;-80
2021/04/10 04:13:55;;;;;;;14.77;6.07;;;6.70;86.40;;;;;;5051361;28;20017;-80
2021/04/10 04:16:20;;;;;;;22.33;7.18;;;6.60;86.20;;;;;;5050983;28;20017;-80
2021/04/10 04:18:46;;;;;;;14.00;4.93;;;6.60;86.70;;;;;;5051296;28;20039;-79
2021/04/10 04:21:12;;;;;;;20.58;7.97;;;6.60;86.80;;;;;;5051026;28;20025;-80
2021/04/10 04:23:37;;;;;;;10.48;4.70;;;6.70;86.70;;;;;;5051410;28;20021;-79
2021/04/10 04:26:03;;;;;;;7.32;2.20;;;6.70;86.60;;;;;;5052701;28;20325;-80
2021/04/10 04:28:29;;;;;;;16.17;5.70;;;6.70;84.30;;;;;;5034466;28;20071;-80
2021/04/10 04:30:57;;;;;;;15.32;6.50;;;6.70;85.20;;;;;;5051182;28;20016;-81
2021/04/10 04:33:22;;;;;;;20.20;7.03;;;6.70;85.80;;;;;;5050972;28;20058;-81
2021/04/10 04:35:48;;;;;;;21.95;7.07;;;6.60;85.40;;;;;;5051318;28;20017;-79
2021/04/10 04:38:13;;;;;;;14.93;6.28;;;6.60;85.80;;;;;;5052113;28;20020;-80
2021/04/10 04:40:39;;;;;;;9.88;4.43;;;6.60;86.00;;;;;;5050721;28;20477;-80
2021/04/10 04:43:05;;;;;;;17.77;7.10;;;6.60;85.70;;;;;;5054925;28;20467;-79
2021/04/10 04:45:30;;;;;;;14.73;5.22;;;6.60;86.10;;;;;;5052541;28;20017;-78
2021/04/10 04:47:59;;;;;;;15.57;5.95;;;6.60;86.40;;;;;;5050938;28;20112;-80
2021/04/10 04:50:24;;;;;;;17.77;5.47;;;6.60;84.50;;;;;;5050861;28;20112;-80
2021/04/10 04:52:50;;;;;;;12.25;3.40;;;6.60;85.10;;;;;;5050970;28;20398;-81
2021/04/10 04:55:15;;;;;;;13.02;4.93;;;6.60;84.50;;;;;;5050703;28;20017;-80
2021/04/10 04:57:41;;;;;;;13.68;5.75;;;6.60;85.10;;;;;;5050955;28;20021;-80
2021/04/10 05:00:07;;;;;;;13.45;5.85;;;6.60;85.90;;;;;;5050722;28;20017;-80
2021/04/10 05:02:33;;;;;;;15.55;6.00;;;6.60;85.60;;;;;;5050704;28;20182;-79
2021/04/10 05:04:58;;;;;;;17.55;5.70;;;6.60;85.60;;;;;;5050845;28;20053;-80
2021/04/10 05:07:24;;;;;;;14.48;4.60;;;6.60;85.90;;;;;;5051515;28;20021;-80
2021/04/10 05:09:49;;;;;;;15.40;5.78;;;6.60;85.60;;;;;;5050378;28;20122;-81
2021/04/10 05:12:15;;;;;;;16.88;6.15;;;6.60;85.70;;;;;;5050582;28;20472;-80
2021/04/10 05:14:40;;;;;;;10.45;4.28;;;6.60;85.70;;;;;;5052197;28;20395;-82
2021/04/10 05:17:06;;;;;;;21.35;5.97;;;6.60;84.90;;;;;;5050596;28;20415;-81
2021/04/10 05:19:31;;;;;;;8.27;2.60;;;6.70;84.80;;;;;;5050630;28;20025;-79
2021/04/10 05:21:57;;;;;;;17.95;5.70;;;6.70;84.30;;;;;;5055812;28;20473;-79
2021/04/10 05:24:23;;;;;;;9.15;3.65;;;6.70;84.70;;;;;;5054571;28;20021;-81
2021/04/10 05:26:48;;;;;;;16.00;5.00;;;6.70;83.90;;;;;;5054503;28;20036;-80
2021/04/10 05:29:17;;;;;;;18.08;5.40;;;6.70;83.90;;;;;;5054400;28;20069;-83
2021/04/10 05:31:43;;;;;;;13.43;4.85;;;6.70;84.20;;;;;;5055549;28;20017;-83
2021/04/10 05:34:11;;;;;;;11.82;4.50;;;6.70;84.00;;;;;;5054832;28;20021;-83
2021/04/10 05:36:37;;;;;;;24.38;6.63;;;6.70;83.90;;;;;;5054642;28;20453;-80
2021/04/10 05:39:06;;;;;;;12.95;5.47;;;6.70;84.10;;;;;;5055548;28;20060;-80
2021/04/10 05:41:35;;;;;;;9.83;3.73;;;6.70;84.50;;;;;;5054361;28;20028;-80
2021/04/10 05:44:01;;;;;;;8.20;2.42;;;6.70;83.80;;;;;;5055740;28;20568;-83
2021/04/10 05:46:29;;;;;;;16.05;5.05;;;6.80;83.70;;;;;;5054475;28;20111;-80
2021/04/10 05:48:55;;;;;;;6.88;2.67;;;6.80;83.70;;;;;;5054361;28;20024;-80
2021/04/10 05:51:20;;;;;;;8.10;2.47;;;6.80;83.20;;;;;;5055465;28;20021;-80
2021/04/10 05:53:46;;;;;;;12.70;4.43;;;6.90;82.70;;;;;;5054466;28;20040;-80
2021/04/10 05:56:12;;;;;;;13.35;4.47;;;6.90;82.40;;;;;;5054172;28;20092;-80
2021/04/10 05:58:38;;;;;;;8.90;2.00;;;6.90;82.40;;;;;;5054334;28;20024;-80
2021/04/10 06:01:04;;;;;;;10.05;2.75;;;7.00;82.00;;;;;;5054069;28;20055;-80
2021/04/10 06:03:30;;;;;;;8.48;3.13;;;7.00;81.90;;;;;;5053388;28;20392;-80
2021/04/10 06:05:56;;;;;;;13.48;5.32;;;7.00;81.80;;;;;;5037143;28;20117;-81
2021/04/10 06:08:23;;;;;;;10.43;4.10;;;7.10;81.80;;;;;;5053644;28;20104;-80
2021/04/10 06:10:48;;;;;;;13.15;4.40;;;7.10;81.60;;;;;;5053390;28;20048;-80
2021/04/10 06:13:15;;;;;;;17.55;5.35;;;7.20;81.50;;;;;;5053376;28;20019;-80
2021/04/10 06:15:41;;;;;;;13.15;4.50;;;7.20;81.40;;;;;;5053484;28;20354;-81
2021/04/10 06:18:07;;;;;;;14.52;4.07;;;7.20;81.20;;;;;;5053560;28;20561;-80
2021/04/10 06:20:32;;;;;;;14.68;3.17;;;7.20;80.80;;;;;;5053500;28;20124;-80
2021/04/10 06:22:58;;;;;;;12.93;4.90;;;7.30;80.90;;;;;;5053609;28;20116;-81
2021/04/10 06:25:24;;;;;;;18.42;5.78;;;7.30;80.50;;;;;;5053611;28;20020;-81
2021/04/10 06:27:50;;;;;;;15.43;5.57;;;7.30;80.50;;;;;;5053651;28;20112;-81
2021/04/10 06:30:16;;;;;;;13.18;4.22;;;7.30;80.40;;;;;;5053412;28;20463;-80
2021/04/10 06:32:41;;;;;;;9.40;3.40;;;7.30;80.70;;;;;;5052856;28;20024;-80
2021/04/10 06:35:08;;;;;;;7.90;2.80;;;7.40;80.40;;;;;;5053400;28;20025;-79
2021/04/10 06:37:35;;;;;;;8.77;3.75;;;7.40;80.30;;;;;;5053254;28;20365;-79
2021/04/10 06:40:00;;;;;;;12.73;4.90;;;7.40;80.00;;;;;;5053676;28;20108;-79
2021/04/10 06:42:27;;;;;;;16.75;5.05;;;7.40;80.00;;;;;;5054243;28;20095;-79
2021/04/10 06:44:54;;;;;;;11.25;4.72;;;7.50;80.00;;;;;;5053344;28;20013;-79
2021/04/10 06:47:22;;;;;;;6.93;1.90;;;7.50;79.90;;;;;;5054378;28;20020;-79
2021/04/10 06:49:51;;;;;;;13.77;4.40;;;7.50;79.70;;;;;;5053153;28;20028;-79
2021/04/10 06:52:18;;;;;;;11.95;4.32;;;7.50;79.50;;;;;;5053809;28;20093;-80
2021/04/10 06:54:47;;;;;;;8.90;3.50;;;7.50;79.70;;;;;;5053469;28;20024;-80
2021/04/10 06:57:17;;;;;;;11.93;5.07;;;7.50;79.70;;;;;;5053972;28;20095;-79
2021/04/10 07:00:05;;;;;;;8.05;3.25;;;7.50;79.30;;;;;;5036205;28;20040;-80
2021/04/10 07:02:31;;;;;;;10.52;3.85;;;7.50;79.40;;;;;;5053243;28;20065;-81
2021/04/10 07:04:57;;;;;;;10.18;4.20;;;7.60;79.50;;;;;;5053510;28;20013;-79
2021/04/10 07:07:24;;;;;;;11.63;4.68;;;7.70;79.30;;;;;;5052280;28;20071;-79
2021/04/10 07:09:49;;;;;;;6.88;1.90;;;7.70;79.00;;;;;;5052581;28;20409;-80
2021/04/10 07:12:16;;;;;;;15.23;4.65;;;7.80;78.70;;;;;;5052725;28;20024;-79
2021/04/10 07:14:41;;;;;;;11.32;3.92;;;7.90;78.60;;;;;;5052878;28;20674;-83
2021/04/10 07:17:07;;;;;;;15.48;4.47;;;7.90;78.10;;;;;;5052747;28;20067;-81
2021/04/10 07:19:33;;;;;;;5.50;2.42;;;7.90;77.90;;;;;;5052608;28;20433;-79
2021/04/10 07:22:13;;;;;;;9.32;3.03;;;7.90;78.10;;;;;;5052675;28;20028;-81
2021/04/10 07:24:39;;;;;;;8.77;3.53;;;7.90;78.10;;;;;;5054278;28;20450;-79
2021/04/10 07:27:35;;;;;;;7.30;2.05;;;8.00;77.60;;;;;;5052441;28;20021;-80
2021/04/10 07:30:01;;;;;;;14.93;3.63;;;8.00;77.90;;;;;;5051707;28;20060;-80
2021/04/10 07:32:36;;;;;;;15.63;5.18;;;8.00;77.50;;;;;;5051928;28;20064;-78
2021/04/10 07:35:07;;;;;;;10.75;3.33;;;8.10;77.20;;;;;;5053081;28;20016;-79
2021/04/10 07:37:42;;;;;;;11.07;4.57;;;8.10;76.80;;;;;;5051594;28;20031;-80
2021/04/10 07:40:11;;;;;;;13.13;2.70;;;8.20;76.10;;;;;;5053053;28;20027;-79
2021/04/10 07:42:39;;;;;;;11.00;3.00;;;8.30;76.30;;;;;;5051778;28;20029;-80
2021/04/10 07:45:28;;;;;;;9.77;4.07;;;8.40;75.70;;;;;;5052000;28;20099;-79
2021/04/10 07:48:14;;;;;;;12.35;4.13;;;8.50;75.10;;;;;;5052430;28;20048;-79
2021/04/10 07:50:40;;;;;;;9.48;2.78;;;8.60;74.60;;;;;;5051249;28;20013;-80
2021/04/10 07:53:26;;;;;;;8.93;3.10;;;8.60;74.50;;;;;;5051834;28;20025;-79
2021/04/10 07:55:57;;;;;;;11.52;3.58;;;8.70;74.10;;;;;;5052852;28;20361;-79
2021/04/10 07:58:26;;;;;;;11.02;3.45;;;8.80;73.80;;;;;;5051472;28;20021;-79
2021/04/10 08:01:04;;;;;;;14.75;3.00;;;8.90;73.10;;;;;;5051598;28;20079;-79
2021/04/10 08:03:35;;;;;;;11.38;3.25;;;8.90;73.40;;;;;;5051215;28;20791;-78
2021/04/10 08:06:06;;;;;;;7.80;2.63;;;9.00;72.60;;;;;;5052786;28;20024;-78
2021/04/10 08:08:43;;;;;;;15.57;4.07;;;9.10;72.50;;;;;;5051100;28;20078;-79
2021/04/10 08:11:09;;;;;;;10.48;2.85;;;9.20;72.50;;;;;;5052013;28;20053;-79
2021/04/10 08:13:36;;;;;;;14.40;3.53;;;9.20;72.00;;;;;;5052191;28;20051;-78
2021/04/10 08:16:20;;;;;;;12.30;3.17;;;9.20;72.40;;;;;;5051749;28;20063;-78
2021/04/10 08:18:49;;;;;;;7.70;2.50;;;9.30;72.20;;;;;;5051313;28;20372;-78
2021/04/10 08:21:18;;;;;;;14.43;3.90;;;9.30;71.70;;;;;;5052569;28;20021;-78
2021/04/10 08:23:44;;;;;;;12.98;3.88;;;9.40;71.80;;;;;;5053068;28;20021;-79
2021/04/10 08:26:10;;;;;;;17.23;3.20;;;9.40;71.00;;;;;;5051925;28;20071;-78
2021/04/10 08:28:36;;;;;;;12.02;2.97;;;9.40;70.70;;;;;;5050960;28;20108;-78
2021/04/10 08:31:03;;;;;;;9.70;3.08;;;9.50;70.90;;;;;;5051775;28;20017;-78
2021/04/10 08:33:30;;;;;;;13.48;2.88;;;9.50;70.40;;;;;;5050921;28;20427;-78
2021/04/10 08:35:58;;;;;;;11.90;3.03;;;9.50;70.10;;;;;;5051070;28;20017;-78
2021/04/10 08:38:26;;;;;;;11.98;3.95;;;9.60;70.60;;;;;;5051876;28;20021;-78
2021/04/10 08:40:55;;;;;;;12.45;2.95;;;9.70;69.50;;;;;;5052398;28;20055;-80
2021/04/10 08:43:25;;;;;;;12.85;3.55;;;9.80;69.90;;;;;;5050337;28;20021;-80
2021/04/10 08:45:52;;;;;;;9.10;2.85;;;9.90;69.00;;;;;;5051962;28;20024;-80
2021/04/10 08:48:20;;;;;;;7.93;1.73;;;10.00;70.20;;;;;;5051741;28;20062;-79
2021/04/10 08:50:47;;;;;;;10.77;2.75;;;10.10;70.90;;;;;;5052038;28;20009;-78
2021/04/10 08:53:18;;;;;;;16.13;3.75;;;10.10;71.90;;;;;;5050305;28;20017;-78
2021/04/10 08:55:45;;;;;;;15.52;3.42;;;10.20;70.10;;;;;;5051519;28;20029;-78
2021/04/10 08:58:23;;;;;;;9.30;3.67;;;10.10;68.50;;;;;;5051708;28;20099;-78
2021/04/10 09:00:58;;;;;;;11.23;3.75;;;10.10;70.30;;;;;;5050283;28;20032;-78
2021/04/10 09:03:45;;;;;;;13.60;3.80;;;10.00;68.50;;;;;;5050073;28;20025;-78
2021/04/10 09:06:12;;;;;;;11.95;3.85;;;10.00;68.70;;;;;;5050059;28;20021;-79
2021/04/10 09:08:38;;;;;;;11.57;3.13;;;10.00;70.00;;;;;;5050762;28;20009;-79
2021/04/10 09:11:05;;;;;;;10.35;3.25;;;10.10;69.00;;;;;;5051083;28;20036;-78
2021/04/10 09:13:32;;;;;;;8.13;2.72;;;10.20;68.20;;;;;;5051234;28;20067;-78
2021/04/10 09:16:20;;;;;;;12.25;3.45;;;10.30;68.80;;;;;;5050168;28;20017;-78
2021/04/10 09:18:55;;;;;;;8.32;2.00;;;10.40;68.00;;;;;;5051443;28;20465;-78
2021/04/10 09:21:42;;;;;;;5.78;1.63;;;10.40;69.10;;;;;;5049833;28;20032;-78
2021/04/10 09:24:26;;;;;;;10.70;2.50;;;10.40;70.70;;;;;;5051735;28;20017;-77
2021/04/10 09:27:00;;;;;;;15.13;3.67;;;10.60;69.10;;;;;;5049772;28;20039;-79
2021/04/10 09:29:28;;;;;;;11.35;3.05;;;10.50;66.80;;;;;;5049542;28;20115;-78
2021/04/10 09:32:00;;;;;;;10.30;2.63;;;10.60;68.10;;;;;;5049750;28;20492;-79
2021/04/10 09:34:46;;;;;;;9.85;2.17;;;10.40;68.20;;;;;;5051244;28;20477;-79
2021/04/10 09:37:21;;;;;;;15.00;3.72;;;10.30;67.80;;;;;;5049731;28;20024;-84
2021/04/10 09:40:06;;;;;;;8.07;2.35;;;10.10;68.20;;;;;;5050316;28;20017;-83
2021/04/10 09:42:34;;;;;;;10.75;2.97;;;10.00;68.60;;;;;;5050285;28;20020;-83
2021/04/10 09:45:23;;;;;;;17.30;4.05;;;9.90;67.80;;;;;;5050347;28;20082;-84
2021/04/10 09:47:55;;;;;;;12.48;4.38;;;10.00;67.70;;;;;;5049680;28;20102;-84
2021/04/10 09:50:25;;;;;;;12.43;3.22;;;10.00;67.50;;;;;;5049945;28;20483;-84
2021/04/10 09:52:54;;;;;;;;;;;10.00;67.60;;;;;;5051800;28;20074;-84
2021/04/10 09:55:21;;;;;;;12.55;3.47;;;9.90;70.40;;;;;;5051159;28;19954;-84
2021/04/10 09:58:08;;;;;;;12.93;4.13;;;9.90;69.00;;;;;;5050287;28;20013;-84
2021/04/10 10:00:36;;;;;;;13.05;3.40;;;9.80;68.80;;;;;;5050137;28;20013;-83
2021/04/10 10:03:05;;;;;;;11.63;3.80;;;9.80;68.00;;;;;;5050183;28;20028;-83
2021/04/10 10:05:37;;;;;;;9.80;3.25;;;9.70;68.50;;;;;;5050096;28;20028;-82
2021/04/10 10:08:08;;;;;;;10.52;3.42;;;9.70;70.30;;;;;;5056070;28;20021;-83
2021/04/10 10:10:39;;;;;;;13.23;4.45;;;9.70;71.10;;;;;;5074035;28;20162;-90
2021/04/10 10:13:07;;;;;;;10.32;3.17;;;9.70;71.00;;;;;;5067419;28;20013;-85
2021/04/10 10:15:33;;;;;;;10.15;3.22;;;9.70;73.50;;;;;;5075851;28;20334;-90
2021/04/10 10:18:32;;;;;;;16.05;3.83;;;9.70;72.50;;;;;;5055998;28;20029;-83
2021/04/10 10:21:03;;;;;;;8.65;2.35;;;9.70;70.10;;;;;;5054257;28;20495;-81
2021/04/10 10:23:40;;;;;;;10.18;4.07;;;9.80;74.70;;;;;;5053028;28;20023;-84
2021/04/10 10:26:07;;;;;;;14.15;4.05;;;9.80;71.30;;;;;;5053535;28;20059;-78
2021/04/10 10:28:35;;;;;;;13.82;4.18;;;9.90;71.40;;;;;;5053230;28;20462;-83
2021/04/10 10:31:12;;;;;;;13.68;3.88;;;9.90;70.50;;;;;;5053131;28;20025;-81
2021/04/10 10:33:39;;;;;;;14.35;4.20;;;9.90;70.60;;;;;;5052775;28;20021;-81
2021/04/10 10:36:05;;;;;;;8.95;3.00;;;10.00;70.60;;;;;;5053117;28;20072;-80
2021/04/10 10:38:34;;;;;;;14.77;4.25;;;10.00;73.30;;;;;;5052615;28;20579;-81
2021/04/10 10:40:59;;;;;;;10.00;3.35;;;10.00;72.60;;;;;;5053265;28;20361;-82
2021/04/10 10:43:26;;;;;;;10.55;3.15;;;10.00;73.80;;;;;;5053144;28;20457;-82
2021/04/10 10:45:54;;;;;;;12.05;3.13;;;9.90;75.50;;;;;;5053252;28;20021;-81
2021/04/10 10:48:28;;;;;;;12.52;4.15;;;9.90;74.70;;;;;;5052751;28;20024;-81
2021/04/10 10:51:00;;;;;;;15.88;3.80;;;9.90;75.70;;;;;;5052642;28;20465;-78
2021/04/10 10:53:33;;;;;;;13.25;4.15;;;9.80;74.70;;;;;;5053624;28;20543;-79
2021/04/10 10:56:11;;;;;;;13.75;3.95;;;9.80;73.00;;;;;;5052624;28;20473;-80
2021/04/10 10:58:45;;;;;;;13.20;4.60;;;9.80;73.40;;;;;;5052646;28;20036;-82
2021/04/10 11:01:17;;;;;;;12.07;4.10;;;9.70;74.10;;;;;;5052556;28;20060;-83
2021/04/10 11:03:45;;;;;;;9.40;4.43;;;9.60;73.30;;;;;;5054140;28;20493;-83
2021/04/10 11:06:15;;;;;;;14.05;4.43;;;9.50;75.90;;;;;;5052394;28;20075;-81
2021/04/10 11:08:41;;;;;;;11.68;4.00;;;9.50;75.30;;;;;;5052567;28;20039;-82
2021/04/10 11:11:07;;;;;;;15.38;6.13;;;9.50;76.10;;;;;;5053850;28;20049;-81
2021/04/10 11:13:34;;;;;;;10.65;3.67;;;9.50;76.40;;;;;;5052556;28;20032;-83
2021/04/10 11:16:03;;;;;;;9.98;4.75;;;9.50;77.80;;;;;;5052136;28;20020;-82
2021/04/10 11:18:33;;;;;;;13.00;4.10;;;9.60;77.90;;;;;;5051318;28;20025;-82
2021/04/10 11:21:12;;;;;;;12.70;5.15;;;9.60;77.40;;;;;;5054668;28;20117;-82
2021/04/10 11:23:56;;;;;;;11.13;4.97;;;9.70;77.40;;;;;;5052775;28;20033;-80
2021/04/10 11:26:37;;;;;;;10.93;4.70;;;9.70;76.00;;;;;;5052230;28;20048;-80
2021/04/10 11:29:23;;;;;;;11.90;4.80;;;9.70;76.70;;;;;;5052388;28;20079;-79
2021/04/10 11:32:16;;;;;;;11.13;5.88;;;9.80;77.60;;;;;;5052537;28;20021;-79
2021/04/10 11:34:47;;;;;;;15.02;6.18;;;9.80;76.50;;;;;;5052349;28;20040;-79
2021/04/10 11:37:21;;;;;;;13.77;6.05;;;9.70;76.50;;;;;;5052069;28;20052;-80
2021/04/10 11:39:56;;;;;;;18.55;8.00;;;9.70;78.50;;;;;;5053247;28;20295;-80
2021/04/10 11:42:25;;;;;;;12.57;5.15;;;9.80;77.50;;;;;;5053659;28;20028;-77
2021/04/10 11:44:52;;;;;;;12.55;5.88;;;9.80;78.60;;;;;;5052184;28;20031;-78
2021/04/10 11:47:32;;;;;;;20.27;7.63;;;9.80;81.50;;;;;;5051725;28;20028;-78
2021/04/10 11:50:06;;;;;;;11.77;5.93;;;9.70;82.20;;;;;;5051729;28;20025;-78
2021/04/10 11:52:31;;;;;;;17.08;10.65;;;9.70;82.20;;;;;;5052765;28;20032;-78
2021/04/10 11:55:05;;;;;;;13.85;6.65;;;9.70;82.70;;;;;;5051864;28;20089;-78
2021/04/10 11:57:32;;;;;;;11.32;5.93;;;9.60;84.00;;;;;;5051533;28;20052;-78
2021/04/10 12:00:02;;;;;;;22.17;12.02;;;9.60;85.70;;;;;;5051736;28;20013;-78
2021/04/10 12:02:31;;;;;;;23.02;11.52;;;9.60;83.30;;;;;;5052741;28;20021;-77
2021/04/10 12:04:57;;;;;;;20.20;11.73;;;9.60;83.90;;;;;;5053168;28;20107;-80
2021/04/10 12:07:22;;;;;;;18.50;10.77;;;9.60;82.50;;;;;;5051745;28;20537;-81
2021/04/10 12:09:50;;;;;;;26.90;15.13;;;9.60;83.60;;;;;;5052759;28;20036;-80
2021/04/10 12:12:16;;;;;;;21.30;13.95;;;9.60;85.30;;;;;;5050846;28;20039;-83
2021/04/10 12:14:42;;;;;;;21.83;12.43;;;9.50;83.10;;;;;;5052279;28;20063;-82
2021/04/10 12:17:11;;;;;;;11.65;4.68;;;9.50;84.20;;;;;;5051954;28;20363;-80
2021/04/10 12:19:37;;;;;;;27.30;13.55;;;9.50;86.90;;;;;;5053288;28;20396;-83
2021/04/10 12:22:03;;;;;;;21.00;12.85;;;9.60;89.00;;;;;;5052968;28;20062;-82
2021/04/10 12:24:31;;;;;;;21.35;13.48;;;9.60;85.40;;;;;;5055325;28;20115;-90
2021/04/10 12:26:57;;;;;;;18.67;11.80;;;9.60;84.90;;;;;;5052068;28;20094;-83
2021/04/10 12:29:24;;;;;;;11.65;5.30;;;9.60;87.10;;;;;;5051499;28;20025;-85
2021/04/10 12:31:50;;;;;;;24.42;16.75;;;9.60;90.20;;;;;;5052780;28;20025;-82
2021/04/10 12:34:15;;;;;;;24.10;16.58;;;9.60;87.90;;;;;;5051503;28;20518;-84
2021/04/10 12:36:41;;;;;;;25.45;12.40;;;9.50;86.50;;;;;;5051157;28;20354;-83
2021/04/10 12:39:06;;;;;;;26.65;17.80;;;9.40;86.30;;;;;;5050927;28;20116;-81
2021/04/10 12:41:32;;;;;;;27.55;17.60;;;9.40;86.30;;;;;;5050681;28;20028;-80
2021/04/10 12:43:57;;;;;;;14.65;9.90;;;9.40;88.00;;;;;;5050664;28;20037;-83
2021/04/10 12:46:23;;;;;;;13.80;8.05;;;9.30;89.70;;;;;;5050415;28;20013;-83
2021/04/10 12:48:49;;;;;;;31.42;15.98;;;9.30;90.10;;;;;;5051149;28;20036;-82
2021/04/10 12:51:15;;;;;;;25.00;13.35;;;9.30;90.20;;;;;;5050359;28;20016;-80
2021/04/10 12:53:41;;;;;;;20.70;13.02;;;9.30;89.70;;;;;;5050969;28;20479;-81
2021/04/10 12:56:07;;;;;;;23.55;14.05;;;9.30;89.40;;;;;;5051322;28;20461;-81
2021/04/10 12:58:34;;;;;;;20.92;14.18;;;9.20;88.50;;;;;;5050591;28;20025;-80